createdAt,value
2023-02-04T00:00:38.946Z,77.44
2023-02-04T00:03:07.330Z,77.60
2023-02-04T00:05:35.516Z,77.24
2023-02-04T00:08:03.861Z,77.24
2023-02-04T00:10:32.313Z,77.32
2023-02-04T00:13:00.566Z,77.07
2023-02-04T00:15:28.596Z,77.30
2023-02-04T00:17:57.927Z,77.56
2023-02-04T00:20:25.796Z,77.54
2023-02-04T00:22:53.709Z,77.44
2023-02-04T00:25:21.594Z,77.87
2023-02-04T00:27:49.566Z,77.73
2023-02-04T00:30:17.961Z,77.85
2023-02-04T00:32:45.865Z,77.85
2023-02-04T00:35:15.253Z,78.19
2023-02-04T00:37:43.208Z,78.37
2023-02-04T00:40:12.402Z,78.41
2023-02-04T00:42:41.014Z,79.02
2023-02-04T00:45:09.924Z,78.90
2023-02-04T00:47:37.889Z,78.64
2023-02-04T00:50:06.402Z,78.54
2023-02-04T00:52:35.695Z,78.66
2023-02-04T00:55:03.863Z,78.38
2023-02-04T00:57:31.782Z,78.41
2023-02-04T00:59:59.749Z,78.68
2023-02-04T01:02:27.681Z,78.51
2023-02-04T01:04:55.561Z,78.56
2023-02-04T01:07:23.487Z,78.27
2023-02-04T01:09:52.796Z,78.52
2023-02-04T01:12:23.004Z,78.67
2023-02-04T01:14:51.092Z,78.70
2023-02-04T01:17:19.908Z,79.00
2023-02-04T01:19:47.964Z,78.41
2023-02-04T01:22:15.864Z,78.56
2023-02-04T01:24:43.801Z,78.83
2023-02-04T01:27:48.365Z,78.97
2023-02-04T01:30:16.845Z,78.69
2023-02-04T01:32:44.788Z,78.37
2023-02-04T01:35:12.682Z,78.58
2023-02-04T01:37:40.594Z,78.47
2023-02-04T01:40:09.612Z,78.61
2023-02-04T01:42:37.610Z,79.29
2023-02-04T01:45:08.446Z,79.30
2023-02-04T01:47:36.675Z,79.45
2023-02-04T01:50:08.817Z,79.81
2023-02-04T01:52:40.861Z,79.99
2023-02-04T01:55:15.868Z,80.13
2023-02-04T01:57:45.154Z,80.41
2023-02-04T02:00:18.244Z,80.58
2023-02-04T02:02:50.664Z,80.75
2023-02-04T02:05:23.268Z,81.06
2023-02-04T02:07:54.157Z,81.36
2023-02-04T02:10:22.468Z,81.79
2023-02-04T02:12:50.609Z,81.26
2023-02-04T02:15:20.230Z,81.61
2023-02-04T02:17:48.611Z,81.67
2023-02-04T02:20:19.174Z,81.58
2023-02-04T02:22:57.111Z,81.54
2023-02-04T02:25:26.408Z,81.58
2023-02-04T02:27:55.293Z,81.87
2023-02-04T02:30:23.665Z,81.81
2023-02-04T02:32:53.288Z,81.99
2023-02-04T02:35:22.236Z,82.11
2023-02-04T02:37:50.936Z,82.28
2023-02-04T02:40:19.620Z,82.26
2023-02-04T02:42:52.553Z,82.61
2023-02-04T02:45:26.632Z,82.80
2023-02-04T02:47:55.476Z,82.68
2023-02-04T02:50:26.552Z,82.43
2023-02-04T02:52:55.701Z,82.38
2023-02-04T02:55:26.306Z,82.77
2023-02-04T02:57:57.065Z,82.79
2023-02-04T03:00:28.257Z,82.41
2023-02-04T03:03:02.748Z,82.70
2023-02-04T03:05:33.724Z,83.34
2023-02-04T03:08:01.928Z,84.39
2023-02-04T03:10:30.232Z,85.44
2023-02-04T03:13:00.884Z,85.09
2023-02-04T03:15:29.090Z,84.38
2023-02-04T03:17:57.373Z,83.98
2023-02-04T03:20:27.802Z,84.49
2023-02-04T03:22:56.551Z,84.37
2023-02-04T03:25:26.666Z,84.16
2023-02-04T03:27:55.074Z,84.30
2023-02-04T03:30:25.525Z,84.67
2023-02-04T03:32:53.961Z,84.60
2023-02-04T03:35:22.212Z,86.00
2023-02-04T03:37:50.172Z,85.69
2023-02-04T03:40:18.317Z,85.68
2023-02-04T03:42:46.204Z,85.37
2023-02-04T03:45:14.176Z,85.12
2023-02-04T03:47:43.476Z,86.22
2023-02-04T03:50:13.968Z,85.89
2023-02-04T03:52:41.879Z,85.49
2023-02-04T03:55:10.053Z,85.30
2023-02-04T03:57:37.996Z,86.06
2023-02-04T04:00:06.511Z,86.00
2023-02-04T04:02:39.750Z,85.76
2023-02-04T04:05:10.601Z,85.82
2023-02-04T04:07:38.578Z,85.62
2023-02-04T04:10:06.895Z,85.73
2023-02-04T04:12:34.808Z,85.71
2023-02-04T04:15:02.734Z,85.99
2023-02-04T04:17:30.735Z,85.79
2023-02-04T04:19:58.647Z,86.04
2023-02-04T04:22:27.940Z,85.85
2023-02-04T04:24:56.156Z,86.18
2023-02-04T04:27:24.056Z,86.03
2023-02-04T04:29:52.098Z,86.00
2023-02-04T04:32:20.087Z,85.81
2023-02-04T04:34:47.940Z,85.87
2023-02-04T04:37:15.886Z,85.81
2023-02-04T04:39:45.158Z,85.83
2023-02-04T04:42:13.123Z,86.03
2023-02-04T04:44:41.038Z,85.86
2023-02-04T04:47:08.993Z,85.46
2023-02-04T04:49:36.962Z,85.82
2023-02-04T04:52:05.181Z,86.03
2023-02-04T04:54:33.064Z,85.89
2023-02-04T04:57:02.322Z,86.00
2023-02-04T04:59:30.233Z,86.00
2023-02-04T05:01:58.134Z,86.01
2023-02-04T05:04:26.069Z,85.64
2023-02-04T05:06:53.962Z,85.92
2023-02-04T05:09:21.834Z,85.61
2023-02-04T05:11:49.755Z,85.74
2023-02-04T05:14:19.051Z,85.48
2023-02-04T05:16:46.990Z,85.47
2023-02-04T05:19:14.881Z,85.54
2023-02-04T05:21:42.939Z,86.02
2023-02-04T05:24:10.820Z,85.96
2023-02-04T05:26:38.775Z,85.96
2023-02-04T05:29:07.050Z,85.63
2023-02-04T05:31:36.405Z,85.69
2023-02-04T05:34:04.379Z,86.07
2023-02-04T05:36:32.284Z,86.39
2023-02-04T05:39:00.204Z,86.26
2023-02-04T05:41:28.086Z,86.52
2023-02-04T05:43:55.992Z,86.37
2023-02-04T05:46:23.914Z,86.13
2023-02-04T05:48:53.381Z,86.13
2023-02-04T05:51:21.273Z,86.17
2023-02-04T05:53:49.648Z,85.66
2023-02-04T05:56:17.567Z,85.56
2023-02-04T05:58:45.505Z,85.58
2023-02-04T06:01:13.656Z,85.67
2023-02-04T06:03:41.609Z,85.95
2023-02-04T06:06:10.915Z,86.19
2023-02-04T06:08:38.836Z,86.12
2023-02-04T06:11:07.160Z,86.14
2023-02-04T06:13:35.061Z,86.04
2023-02-04T06:16:02.957Z,86.49
2023-02-04T06:18:30.855Z,86.56
2023-02-04T06:20:58.769Z,86.34
2023-02-04T06:23:28.071Z,86.20
2023-02-04T06:25:55.999Z,86.44
2023-02-04T06:28:23.894Z,86.26
2023-02-04T06:30:51.926Z,86.68
2023-02-04T06:33:21.395Z,86.25
2023-02-04T06:35:49.346Z,86.58
2023-02-04T06:38:17.398Z,86.39
2023-02-04T06:40:49.403Z,86.68
2023-02-04T06:43:17.681Z,86.44
2023-02-04T06:45:45.700Z,86.35
2023-02-04T06:48:13.637Z,86.82
2023-02-04T06:50:41.544Z,86.89
2023-02-04T06:53:09.482Z,86.90
2023-02-04T06:55:37.492Z,87.07
2023-02-04T06:58:06.811Z,86.42
2023-02-04T07:00:34.986Z,86.16
2023-02-04T07:03:03.040Z,85.77
2023-02-04T07:05:31.421Z,85.74
2023-02-04T07:07:59.365Z,86.04
2023-02-04T07:10:27.288Z,86.09
2023-02-04T07:12:55.255Z,86.00
2023-02-04T07:15:24.643Z,85.64
2023-02-04T07:17:52.570Z,85.66
2023-02-04T07:20:20.779Z,85.80
2023-02-04T07:22:48.699Z,85.75
2023-02-04T07:25:17.934Z,85.57
2023-02-04T07:27:46.032Z,86.23
2023-02-04T07:30:14.746Z,86.62
2023-02-04T07:32:44.012Z,87.47
2023-02-04T07:35:12.574Z,88.55
2023-02-04T07:37:40.461Z,88.20
2023-02-04T07:40:10.293Z,87.35
2023-02-04T07:42:38.236Z,87.67
2023-02-04T07:45:12.157Z,87.57
2023-02-04T07:47:40.037Z,87.30
2023-02-04T07:50:09.878Z,86.82
2023-02-04T07:52:37.744Z,86.85
2023-02-04T07:55:06.027Z,86.37
2023-02-04T07:57:33.964Z,86.39
2023-02-04T08:00:01.918Z,86.86
2023-02-04T08:02:29.936Z,86.90
2023-02-04T08:04:57.861Z,86.23
2023-02-04T08:07:27.241Z,85.42
2023-02-04T08:09:55.146Z,85.00
2023-02-04T08:12:23.053Z,84.41
2023-02-04T08:14:51.029Z,84.88
2023-02-04T08:17:18.888Z,84.60
2023-02-04T08:19:46.788Z,83.50
2023-02-04T08:22:14.722Z,83.57
2023-02-04T08:24:44.005Z,83.78
2023-02-04T08:27:12.659Z,83.47
2023-02-04T08:29:40.578Z,84.07
2023-02-04T08:32:10.075Z,83.54
2023-02-04T08:34:38.106Z,83.26
2023-02-04T08:37:06.207Z,83.20
2023-02-04T08:39:34.120Z,83.41
2023-02-04T08:42:03.406Z,83.45
2023-02-04T08:44:31.316Z,84.34
2023-02-04T08:46:59.261Z,83.94
2023-02-04T08:49:27.418Z,83.06
2023-02-04T08:51:55.373Z,83.13
2023-02-04T08:54:23.278Z,82.67
2023-02-04T08:56:51.180Z,82.81
2023-02-04T08:59:21.768Z,82.85
2023-02-04T09:01:52.578Z,82.59
2023-02-04T09:04:21.428Z,82.51
2023-02-04T09:06:49.771Z,82.67
2023-02-04T09:09:17.836Z,83.27
2023-02-04T09:11:45.820Z,83.99
2023-02-04T09:14:13.949Z,83.69
2023-02-04T09:16:43.305Z,82.75
2023-02-04T09:19:16.268Z,82.50
2023-02-04T09:21:44.187Z,83.23
2023-02-04T09:24:12.063Z,83.02
2023-02-04T09:26:39.958Z,83.50
2023-02-04T09:29:07.851Z,84.08
2023-02-04T09:31:35.773Z,83.51
2023-02-04T09:34:05.080Z,84.26
2023-02-04T09:36:37.909Z,84.99
2023-02-04T09:39:07.039Z,85.72
2023-02-04T09:41:36.061Z,85.41
2023-02-04T09:44:06.142Z,85.74
2023-02-04T09:46:34.457Z,83.84
2023-02-04T09:49:03.673Z,85.20
2023-02-04T09:51:35.514Z,84.05
2023-02-04T09:54:09.873Z,84.25
2023-02-04T09:56:37.876Z,84.96
2023-02-04T09:59:06.445Z,83.92
2023-02-04T10:01:34.388Z,84.41
2023-02-04T10:04:03.167Z,83.02
2023-02-04T10:06:32.871Z,83.54
2023-02-04T10:09:00.852Z,83.66
2023-02-04T10:11:31.651Z,82.60
2023-02-04T10:13:59.654Z,82.87
2023-02-04T10:16:31.239Z,83.60
2023-02-04T10:19:00.636Z,83.67
2023-02-04T10:21:30.272Z,82.60
2023-02-04T10:24:00.696Z,82.67
2023-02-04T10:26:31.530Z,82.97
2023-02-04T10:29:01.562Z,82.95
2023-02-04T10:31:36.092Z,82.51
2023-02-04T10:34:06.104Z,83.57
2023-02-04T10:36:34.086Z,83.24
2023-02-04T10:39:04.706Z,81.81
2023-02-04T10:41:33.529Z,81.67
2023-02-04T10:44:06.153Z,81.79
2023-02-04T10:46:34.116Z,82.61
2023-02-04T10:49:04.865Z,81.97
2023-02-04T10:51:33.344Z,80.85
2023-02-04T10:54:18.760Z,80.96
2023-02-04T10:56:48.040Z,80.50
2023-02-04T10:59:26.782Z,83.42
2023-02-04T11:01:57.194Z,81.78
2023-02-04T11:04:25.453Z,82.09
2023-02-04T11:06:54.373Z,81.66
2023-02-04T11:09:22.848Z,81.82
2023-02-04T11:11:52.871Z,82.59
2023-02-04T11:14:29.323Z,81.02
2023-02-04T11:17:01.061Z,81.40
2023-02-04T11:19:35.286Z,81.77
2023-02-04T11:22:23.719Z,81.14
2023-02-04T11:24:52.541Z,81.04
2023-02-04T11:27:25.170Z,80.75
2023-02-04T11:29:53.929Z,80.72
2023-02-04T11:32:34.826Z,80.88
2023-02-04T11:35:25.434Z,82.24
2023-02-04T11:37:55.049Z,80.88
2023-02-04T11:40:29.876Z,79.98
2023-02-04T11:43:01.965Z,80.00
2023-02-04T11:45:33.253Z,80.72
2023-02-04T11:48:03.951Z,80.05
2023-02-04T11:50:33.805Z,77.88
2023-02-04T11:53:03.060Z,78.27
2023-02-04T11:55:33.371Z,77.74
2023-02-04T11:58:03.079Z,78.75
2023-02-04T12:00:33.234Z,78.32
2023-02-04T12:03:06.178Z,78.24
2023-02-04T12:05:41.016Z,78.48
2023-02-04T12:08:14.024Z,78.04
2023-02-04T12:10:49.668Z,77.71
2023-02-04T12:13:23.735Z,77.68
2023-02-04T12:15:59.321Z,77.91
2023-02-04T12:18:28.768Z,77.06
2023-02-04T12:20:57.500Z,77.44
2023-02-04T12:23:26.085Z,77.24
2023-02-04T12:25:54.543Z,76.80
2023-02-04T12:28:24.404Z,77.62
2023-02-04T12:30:52.497Z,77.07
2023-02-04T12:33:20.488Z,77.44
2023-02-04T12:35:48.586Z,76.63
2023-02-04T12:38:16.518Z,77.26
2023-02-04T12:40:44.688Z,76.48
2023-02-04T12:43:12.653Z,76.03
2023-02-04T12:45:45.745Z,76.39
2023-02-04T12:48:15.104Z,76.62
2023-02-04T12:50:43.104Z,76.12
2023-02-04T12:53:11.096Z,76.01
2023-02-04T12:55:39.094Z,75.39
2023-02-04T12:58:06.992Z,75.15
2023-02-04T13:00:34.973Z,75.67
2023-02-04T13:03:05.324Z,75.72
2023-02-04T13:05:34.146Z,74.97
2023-02-04T13:08:02.174Z,74.98
2023-02-04T13:10:30.224Z,75.15
2023-02-04T13:12:58.131Z,74.79
2023-02-04T13:15:26.024Z,74.48
2023-02-04T13:17:54.021Z,75.26
2023-02-04T13:20:23.496Z,74.49
2023-02-04T13:22:51.425Z,74.86
2023-02-04T13:25:20.531Z,75.48
2023-02-04T13:27:48.505Z,74.07
2023-02-04T13:30:16.987Z,74.46
2023-02-04T13:32:44.991Z,74.22
2023-02-04T13:35:12.876Z,74.38
2023-02-04T13:37:42.141Z,73.66
2023-02-04T13:40:12.108Z,73.58
2023-02-04T13:42:40.069Z,73.02
2023-02-04T13:45:12.269Z,72.91
2023-02-04T13:47:40.528Z,72.86
2023-02-04T13:50:09.421Z,72.52
2023-02-04T13:52:37.369Z,72.12
2023-02-04T13:55:07.390Z,71.83
2023-02-04T13:57:37.367Z,71.83
2023-02-04T14:00:06.883Z,71.20
2023-02-04T14:02:40.535Z,70.80
2023-02-04T14:05:08.629Z,70.45
2023-02-04T14:07:36.574Z,70.97
2023-02-04T14:10:06.584Z,71.01
2023-02-04T14:12:34.548Z,71.00
2023-02-04T14:15:02.459Z,70.43
2023-02-04T14:17:30.366Z,70.51
2023-02-04T14:19:58.287Z,70.81
2023-02-04T14:22:26.197Z,71.45
2023-02-04T14:24:54.140Z,70.92
2023-02-04T14:27:24.241Z,69.95
2023-02-04T14:29:52.131Z,70.36
2023-02-04T14:32:20.931Z,69.87
2023-02-04T14:34:48.965Z,68.55
2023-02-04T14:37:16.876Z,68.99
2023-02-04T14:39:44.828Z,68.77
2023-02-04T14:42:12.700Z,68.58
2023-02-04T14:44:41.977Z,68.40
2023-02-04T14:47:09.886Z,68.37
2023-02-04T14:49:38.133Z,68.52
2023-02-04T14:52:06.508Z,67.64
2023-02-04T14:54:34.476Z,67.36
2023-02-04T14:57:02.551Z,67.45
2023-02-04T14:59:30.508Z,67.59
2023-02-04T15:01:59.790Z,67.26
2023-02-04T15:04:27.792Z,67.17
2023-02-04T15:06:57.654Z,67.76
2023-02-04T15:09:25.637Z,67.72
2023-02-04T15:11:53.592Z,67.34
2023-02-04T15:14:21.508Z,67.43
2023-02-04T15:16:49.486Z,67.43
2023-02-04T15:19:19.506Z,66.60
2023-02-04T15:21:47.581Z,66.47
2023-02-04T15:24:15.510Z,66.72
2023-02-04T15:26:43.431Z,66.01
2023-02-04T15:29:11.346Z,66.46
2023-02-04T15:31:39.319Z,66.89
2023-02-04T15:34:07.330Z,66.99
2023-02-04T15:36:36.596Z,66.56
2023-02-04T15:39:05.224Z,66.59
2023-02-04T15:41:33.235Z,66.48
2023-02-04T15:44:01.111Z,66.63
2023-02-04T15:46:29.040Z,66.25
2023-02-04T15:48:56.991Z,66.45
2023-02-04T15:51:24.943Z,66.29
2023-02-04T15:53:54.260Z,66.45
2023-02-04T15:56:22.224Z,66.16
2023-02-04T15:58:50.170Z,66.73
2023-02-04T16:01:18.082Z,66.44
2023-02-04T16:03:47.274Z,66.62
2023-02-04T16:06:15.161Z,66.71
2023-02-04T16:08:43.185Z,66.91
2023-02-04T16:11:12.435Z,66.36
2023-02-04T16:13:40.320Z,67.34
2023-02-04T16:16:09.040Z,66.65
2023-02-04T16:18:36.976Z,66.78
2023-02-04T16:21:05.185Z,66.78
2023-02-04T16:23:33.225Z,66.73
2023-02-04T16:26:01.074Z,66.96
2023-02-04T16:28:30.368Z,67.37
2023-02-04T16:30:58.422Z,67.36
2023-02-04T16:33:27.965Z,68.27
2023-02-04T16:36:00.975Z,68.69
2023-02-04T16:38:29.929Z,69.54
2023-02-04T16:40:58.395Z,69.51
2023-02-04T16:43:26.748Z,70.25
2023-02-04T16:45:56.204Z,69.74
2023-02-04T16:48:24.979Z,70.87
2023-02-04T16:50:52.892Z,70.99
2023-02-04T16:53:20.802Z,71.15
2023-02-04T16:55:49.165Z,72.05
2023-02-04T16:58:18.104Z,71.35
2023-02-04T17:00:46.053Z,72.49
2023-02-04T17:03:16.061Z,71.82
2023-02-04T17:05:44.371Z,72.33
2023-02-04T17:08:13.672Z,72.10
2023-02-04T17:10:59.606Z,72.50
2023-02-04T17:13:27.518Z,73.70
2023-02-04T17:16:00.644Z,73.83
2023-02-04T17:18:31.255Z,73.98
2023-02-04T17:21:00.268Z,73.35
2023-02-04T17:23:29.335Z,74.14
2023-02-04T17:25:57.252Z,74.54
2023-02-04T17:28:26.213Z,74.09
2023-02-04T17:30:54.299Z,74.88
2023-02-04T17:33:22.307Z,75.50
2023-02-04T17:35:51.678Z,75.05
2023-02-04T17:38:19.559Z,76.11
2023-02-04T17:40:47.747Z,75.88
2023-02-04T17:43:15.624Z,76.13
2023-02-04T17:45:43.855Z,76.11
2023-02-04T17:48:11.756Z,76.18
2023-02-04T17:50:40.292Z,76.68
2023-02-04T17:53:11.407Z,77.37
2023-02-04T17:55:40.010Z,77.84
2023-02-04T17:58:14.245Z,78.07
2023-02-04T18:00:44.512Z,77.67
2023-02-04T18:03:14.010Z,78.56
2023-02-04T18:05:46.106Z,78.49
2023-02-04T18:08:17.068Z,78.93
2023-02-04T18:10:46.487Z,78.70
2023-02-04T18:13:17.279Z,78.65
2023-02-04T18:15:47.418Z,78.78
2023-02-04T18:18:26.292Z,78.97
2023-02-04T18:21:15.420Z,79.61
2023-02-04T18:23:46.014Z,79.46
2023-02-04T18:26:17.825Z,79.23
2023-02-04T18:28:48.816Z,79.38
2023-02-04T18:31:34.313Z,80.09
2023-02-04T18:34:03.147Z,79.58
2023-02-04T18:36:34.477Z,80.25
2023-02-04T18:39:20.323Z,79.82
2023-02-04T18:41:50.579Z,79.70
2023-02-04T18:44:31.084Z,79.78
2023-02-04T18:46:59.422Z,79.99
2023-02-04T18:49:29.021Z,79.92
2023-02-04T18:51:59.797Z,80.47
2023-02-04T18:54:35.523Z,81.17
2023-02-04T18:57:21.692Z,81.39
2023-02-04T18:59:49.893Z,81.08
2023-02-04T19:02:36.396Z,81.70
2023-02-04T19:05:19.078Z,81.47
2023-02-04T19:07:46.965Z,81.42
2023-02-04T19:10:29.256Z,82.01
2023-02-04T19:13:12.044Z,81.97
2023-02-04T19:15:40.317Z,82.00
2023-02-04T19:18:22.492Z,82.34
2023-02-04T19:20:50.489Z,82.13
2023-02-04T19:23:21.783Z,81.55
2023-02-04T19:25:52.343Z,81.82
2023-02-04T19:28:29.218Z,82.04
2023-02-04T19:31:02.026Z,82.58
2023-02-04T19:33:37.583Z,82.39
2023-02-04T19:36:22.565Z,82.64
2023-02-04T19:38:56.494Z,82.20
2023-02-04T19:41:32.680Z,82.74
2023-02-04T19:44:34.606Z,82.82
2023-02-04T19:47:27.088Z,82.41
2023-02-04T19:50:03.399Z,82.67
2023-02-04T19:52:35.943Z,82.69
2023-02-04T19:55:25.712Z,83.55
2023-02-04T19:57:56.196Z,82.50
2023-02-04T20:00:58.920Z,83.90
2023-02-04T20:03:31.427Z,82.78
2023-02-04T20:06:02.962Z,83.53
2023-02-04T20:08:45.933Z,83.34
2023-02-04T20:11:35.133Z,82.62
2023-02-04T20:14:25.874Z,82.68
2023-02-04T20:16:57.526Z,82.34
2023-02-04T20:19:35.271Z,82.73
2023-02-04T20:22:33.063Z,82.69
2023-02-04T20:25:29.025Z,82.69
2023-02-04T20:28:01.036Z,82.31
2023-02-04T20:30:32.042Z,82.56
2023-02-04T20:33:13.675Z,82.51
2023-02-04T20:36:16.648Z,82.65
2023-02-04T20:38:45.921Z,82.38
2023-02-04T20:41:19.914Z,82.27
2023-02-04T20:43:50.189Z,82.23
2023-02-04T20:46:22.815Z,82.30
2023-02-04T20:48:51.288Z,81.77
2023-02-04T20:51:23.438Z,81.91
2023-02-04T20:53:52.497Z,81.96
2023-02-04T20:56:25.504Z,81.45
2023-02-04T20:58:56.602Z,82.19
2023-02-04T21:01:33.856Z,81.69
2023-02-04T21:04:16.234Z,81.81
2023-02-04T21:06:44.347Z,81.75
2023-02-04T21:09:21.036Z,82.37
2023-02-04T21:11:48.991Z,81.70
2023-02-04T21:14:17.023Z,81.87
2023-02-04T21:16:46.290Z,81.41
2023-02-04T21:19:16.215Z,81.61
2023-02-04T21:21:44.128Z,81.62
2023-02-04T21:24:12.192Z,81.53
2023-02-04T21:26:40.511Z,81.17
2023-02-04T21:29:08.547Z,81.29
2023-02-04T21:31:36.608Z,81.35
2023-02-04T21:34:06.065Z,81.44
2023-02-04T21:36:34.005Z,81.23
2023-02-04T21:39:02.078Z,80.79
2023-02-04T21:41:29.982Z,81.06
2023-02-04T21:43:58.126Z,81.16
2023-02-04T21:46:26.113Z,80.93
2023-02-04T21:48:54.152Z,81.04
2023-02-04T21:51:23.490Z,80.66
2023-02-04T21:53:51.421Z,80.75
2023-02-04T21:56:19.360Z,80.78
2023-02-04T21:58:47.286Z,80.85
2023-02-04T22:01:15.180Z,80.73
2023-02-04T22:03:43.151Z,80.83
2023-02-04T22:06:11.296Z,80.58
2023-02-04T22:08:40.599Z,80.62
2023-02-04T22:11:08.609Z,80.66
2023-02-04T22:13:36.519Z,80.91
2023-02-04T22:16:04.549Z,80.83
2023-02-04T22:18:32.505Z,81.37
2023-02-04T22:21:00.508Z,80.91
2023-02-04T22:23:28.447Z,80.85
2023-02-04T22:25:57.701Z,80.39
2023-02-04T22:28:25.577Z,80.72
2023-02-04T22:30:54.384Z,80.82
2023-02-04T22:33:22.353Z,80.71
2023-02-04T22:35:50.257Z,80.90
2023-02-04T22:38:20.093Z,80.36
2023-02-04T22:40:48.949Z,80.87
2023-02-04T22:43:18.239Z,80.56
2023-02-04T22:45:46.136Z,80.76
2023-02-04T22:48:14.086Z,80.66
2023-02-04T22:50:41.995Z,80.67
2023-02-04T22:53:09.922Z,80.97
2023-02-04T22:55:37.777Z,80.91
2023-02-04T22:58:05.701Z,80.87
2023-02-04T23:00:35.079Z,81.33
2023-02-04T23:03:02.988Z,81.35
2023-02-04T23:05:31.126Z,81.59
2023-02-04T23:07:59.191Z,81.05
2023-02-04T23:10:27.149Z,81.82
2023-02-04T23:12:55.036Z,81.83
2023-02-04T23:15:23.107Z,82.01
2023-02-04T23:17:52.797Z,81.46
2023-02-04T23:20:21.002Z,82.86
2023-02-04T23:22:48.996Z,82.84
2023-02-04T23:25:17.041Z,82.71
2023-02-04T23:27:45.058Z,82.51
2023-02-04T23:30:14.495Z,82.86
2023-02-04T23:32:42.472Z,82.84
2023-02-04T23:35:11.794Z,82.41
2023-02-04T23:37:39.851Z,82.47
2023-02-04T23:40:08.696Z,82.63
2023-02-04T23:42:36.614Z,81.86
2023-02-04T23:45:04.946Z,82.48
2023-02-04T23:47:32.914Z,82.55
2023-02-04T23:50:00.952Z,82.50
2023-02-04T23:52:30.305Z,82.09
2023-02-04T23:54:58.250Z,82.70
2023-02-04T23:57:26.218Z,83.02
2023-02-04T23:59:54.213Z,82.70
